Ferry Kyoto2 — JI3701 — position and weather

sailwx.info

Track history (hours):
 
Tides and Currents Weather Stations Pressure Air Temp Water Temp Dewpoint Dewpoint Depression Visibility Wind Speed Wind Dir Waves Ship Positions

Ferry Kyoto2

Last reported at 2014-Oct-25 07:27 UTC. Time now 2014-Oct-25 07:56 UTC.
Position N 34°37' E 135°26'.

Length 167 m; draft 6 m.

Type: Passenger vessel. MMSI: 431301641.

Date/timePositionNaut miles runAvg speedWind from/ knotsBaromVisibWave heightAir tempDewpointWater temp
2014-Oct-25 07:27N 34°37' E 135°26'0 0.0
2014-Oct-25 06:27N 34°37' E 135°26'0 0.0
2014-Oct-25 05:33N 34°37' E 135°26'0 0.0
2014-Oct-25 04:33N 34°37' E 135°26'0 0.0
2014-Oct-25 03:21N 34°37' E 135°26'0 0.0
2014-Oct-25 02:33N 34°37' E 135°26'0 0.0
2014-Oct-25 01:27N 34°37' E 135°26'0 0.0
2014-Oct-25 00:27N 34°37' E 135°26'0 0.0
2014-Oct-24 23:30N 34°37' E 135°26'1111.2
2014-Oct-24 22:33N 34°35' E 135°13'1818.4
2014-Oct-24 21:33N 34°34' E 134°51'10817.9
2014-Oct-24 15:33N 34°01' E 132°47'7 0.3
2014-Oct-23 18:28N 33°57' E 132°41'10918.4
2014-Oct-23 12:33N 34°33' E 134°45'2222.1
2014-Oct-23 11:34N 34°36' E 135°12'1210.9
2014-Oct-23 10:29N 34°37' E 135°26'0 0.0
2014-Oct-23 09:29N 34°37' E 135°26'0 0.0
2014-Oct-23 08:29N 34°37' E 135°26'0 0.0
2014-Oct-23 07:29N 34°37' E 135°26'0 0.0
2014-Oct-23 06:29N 34°37' E 135°26'0 0.0
2014-Oct-23 05:29N 34°37' E 135°26'0 0.0
2014-Oct-23 04:29N 34°37' E 135°26'0 0.0
2014-Oct-23 03:29N 34°37' E 135°26'0 0.0
2014-Oct-23 02:29N 34°37' E 135°26'0 0.0
2014-Oct-23 01:29N 34°37' E 135°26'0 0.0
2014-Oct-23 00:23N 34°37' E 135°26'0 0.0
2014-Oct-22 23:33N 34°37' E 135°26'1212.0
2014-Oct-22 22:33N 34°35' E 135°12'1717.0
2014-Oct-22 21:32N 34°34' E 134°51'10717.7
2014-Oct-22 15:28N 34°01' E 132°47'2620.1
2014-Oct-22 14:11N 33°50' E 132°19'20 1.0
2014-Oct-21 18:28N 33°57' E 132°41'11018.5
2014-Oct-21 12:33N 34°34' E 134°46'2121.4
2014-Oct-21 11:33N 34°36' E 135°12'1210.8
2014-Oct-21 10:29N 34°37' E 135°26'0 0.0
2014-Oct-21 09:29N 34°37' E 135°26'0 0.0
2014-Oct-21 08:23N 34°37' E 135°26'0 0.0
2014-Oct-21 07:29N 34°37' E 135°26'0 0.0
2014-Oct-21 06:29N 34°37' E 135°26'0 0.0
2014-Oct-21 05:29N 34°37' E 135°26'0 0.0
2014-Oct-21 04:29N 34°37' E 135°26'0 0.0
2014-Oct-21 03:23N 34°37' E 135°26'0 0.0
2014-Oct-21 02:29N 34°37' E 135°26'0 0.0
2014-Oct-21 01:29N 34°37' E 135°26'0 0.0
2014-Oct-21 00:29N 34°37' E 135°26'0 0.0
2014-Oct-20 23:33N 34°37' E 135°26'1111.0
2014-Oct-20 22:33N 34°35' E 135°13'1717.3
2014-Oct-20 21:33N 34°34' E 134°52'10918.0
2014-Oct-20 15:29N 34°01' E 132°46'6 0.3
2014-Oct-19 18:23N 33°57' E 132°41'11118.8
2014-Oct-19 12:31N 34°34' E 134°47'2021.0
2014-Oct-19 11:33N 34°36' E 135°11'12 9.9
2014-Oct-19 10:21N 34°37' E 135°26'0 0.0
2014-Oct-19 09:33N 34°37' E 135°26'0 0.0
2014-Oct-19 08:33N 34°37' E 135°26'0 0.0
2014-Oct-19 07:33N 34°37' E 135°26'0 0.0
2014-Oct-19 06:33N 34°37' E 135°26'3 2.9
2014-Oct-19 05:33N 34°38' E 135°22'1616.2
2014-Oct-19 04:33N 34°26' E 135°08'1313.5
2014-Oct-19 03:33N 34°36' E 134°57'1716.7
2014-Oct-19 02:33N 34°37' E 135°17'7 6.7
2014-Oct-19 01:29N 34°37' E 135°26'0 0.0
2014-Oct-19 00:29N 34°37' E 135°26'0 0.0
2014-Oct-18 23:34N 34°37' E 135°26'1110.7
2014-Oct-18 22:33N 34°35' E 135°13'1818.1
2014-Oct-18 21:33N 34°34' E 134°51'11017.7
2014-Oct-18 15:19N 33°59' E 132°44'2321.5
2014-Oct-18 14:16N 33°45' E 132°23'132 5.1
2014-Oct-17 12:30N 34°34' E 134°51'1919.7
2014-Oct-17 11:33N 34°36' E 135°13'1010.2
2014-Oct-17 10:32N 34°37' E 135°26'0 0.0
2014-Oct-17 09:32N 34°37' E 135°26'0 0.0
2014-Oct-17 08:26N 34°37' E 135°26'0 0.0
2014-Oct-17 07:32N 34°37' E 135°26'0 0.0
2014-Oct-17 06:32N 34°37' E 135°26'0 0.0
2014-Oct-17 05:26N 34°37' E 135°26'0 0.0
2014-Oct-17 04:26N 34°37' E 135°26'0 0.0
2014-Oct-17 03:32N 34°37' E 135°26'0 0.0
2014-Oct-17 02:32N 34°37' E 135°26'0 0.0
2014-Oct-17 01:32N 34°37' E 135°26'0 0.0
2014-Oct-17 00:26N 34°37' E 135°26'0 0.0
2014-Oct-16 23:33N 34°37' E 135°26'1010.3
2014-Oct-16 22:33N 34°35' E 135°14'1919.0
2014-Oct-16 21:33N 34°33' E 134°51'10818.0
2014-Oct-16 15:33N 34°01' E 132°46'2421.8
2014-Oct-16 14:28N 33°46' E 132°24'19 1.0
2014-Oct-15 18:32N 33°58' E 132°42'11418.9
2014-Oct-15 12:32N 34°35' E 134°52'2020.5
2014-Oct-15 11:33N 34°37' E 135°16'8 7.8
2014-Oct-15 10:33N 34°37' E 135°26'0 0.0
2014-Oct-15 09:33N 34°37' E 135°26'0 0.0
2014-Oct-15 08:33N 34°37' E 135°26'0 0.0
2014-Oct-15 07:33N 34°37' E 135°26'  
Track history (hours):
 
Tides and Currents Weather Stations Pressure Air Temp Water Temp Dewpoint Dewpoint Depression Visibility Wind Speed Wind Dir Waves Ship Positions

Ferry Kyoto2

Last reported at 2014-Oct-25 07:27 UTC. Time now 2014-Oct-25 07:56 UTC.
Position N 34°37' E 135°26'.

Length 167 m; draft 6 m.

Type: Passenger vessel. MMSI: 431301641.

Date/timePositionNaut miles runAvg speedWind from/ knotsBaromVisibWave heightAir tempDewpointWater temp
2014-Oct-25 07:27N 34°37' E 135°26'0 0.0
2014-Oct-25 06:27N 34°37' E 135°26'0 0.0
2014-Oct-25 05:33N 34°37' E 135°26'0 0.0
2014-Oct-25 04:33N 34°37' E 135°26'0 0.0
2014-Oct-25 03:21N 34°37' E 135°26'0 0.0
2014-Oct-25 02:33N 34°37' E 135°26'0 0.0
2014-Oct-25 01:27N 34°37' E 135°26'0 0.0
2014-Oct-25 00:27N 34°37' E 135°26'0 0.0
2014-Oct-24 23:30N 34°37' E 135°26'1111.2
2014-Oct-24 22:33N 34°35' E 135°13'1818.4
2014-Oct-24 21:33N 34°34' E 134°51'10817.9
2014-Oct-24 15:33N 34°01' E 132°47'7 0.3
2014-Oct-23 18:28N 33°57' E 132°41'10918.4
2014-Oct-23 12:33N 34°33' E 134°45'2222.1
2014-Oct-23 11:34N 34°36' E 135°12'1210.9
2014-Oct-23 10:29N 34°37' E 135°26'0 0.0
2014-Oct-23 09:29N 34°37' E 135°26'0 0.0
2014-Oct-23 08:29N 34°37' E 135°26'0 0.0
2014-Oct-23 07:29N 34°37' E 135°26'0 0.0
2014-Oct-23 06:29N 34°37' E 135°26'0 0.0
2014-Oct-23 05:29N 34°37' E 135°26'0 0.0
2014-Oct-23 04:29N 34°37' E 135°26'0 0.0
2014-Oct-23 03:29N 34°37' E 135°26'0 0.0
2014-Oct-23 02:29N 34°37' E 135°26'0 0.0
2014-Oct-23 01:29N 34°37' E 135°26'0 0.0
2014-Oct-23 00:23N 34°37' E 135°26'0 0.0
2014-Oct-22 23:33N 34°37' E 135°26'1212.0
2014-Oct-22 22:33N 34°35' E 135°12'1717.0
2014-Oct-22 21:32N 34°34' E 134°51'10717.7
2014-Oct-22 15:28N 34°01' E 132°47'2620.1
2014-Oct-22 14:11N 33°50' E 132°19'20 1.0
2014-Oct-21 18:28N 33°57' E 132°41'11018.5
2014-Oct-21 12:33N 34°34' E 134°46'2121.4
2014-Oct-21 11:33N 34°36' E 135°12'1210.8
2014-Oct-21 10:29N 34°37' E 135°26'0 0.0
2014-Oct-21 09:29N 34°37' E 135°26'0 0.0
2014-Oct-21 08:23N 34°37' E 135°26'0 0.0
2014-Oct-21 07:29N 34°37' E 135°26'0 0.0
2014-Oct-21 06:29N 34°37' E 135°26'0 0.0
2014-Oct-21 05:29N 34°37' E 135°26'0 0.0
2014-Oct-21 04:29N 34°37' E 135°26'0 0.0
2014-Oct-21 03:23N 34°37' E 135°26'0 0.0
2014-Oct-21 02:29N 34°37' E 135°26'0 0.0
2014-Oct-21 01:29N 34°37' E 135°26'0 0.0
2014-Oct-21 00:29N 34°37' E 135°26'0 0.0
2014-Oct-20 23:33N 34°37' E 135°26'1111.0
2014-Oct-20 22:33N 34°35' E 135°13'1717.3
2014-Oct-20 21:33N 34°34' E 134°52'10918.0
2014-Oct-20 15:29N 34°01' E 132°46'6 0.3
2014-Oct-19 18:23N 33°57' E 132°41'11118.8
2014-Oct-19 12:31N 34°34' E 134°47'2021.0
2014-Oct-19 11:33N 34°36' E 135°11'12 9.9
2014-Oct-19 10:21N 34°37' E 135°26'0 0.0
2014-Oct-19 09:33N 34°37' E 135°26'0 0.0
2014-Oct-19 08:33N 34°37' E 135°26'0 0.0
2014-Oct-19 07:33N 34°37' E 135°26'0 0.0
2014-Oct-19 06:33N 34°37' E 135°26'3 2.9
2014-Oct-19 05:33N 34°38' E 135°22'1616.2
2014-Oct-19 04:33N 34°26' E 135°08'1313.5
2014-Oct-19 03:33N 34°36' E 134°57'1716.7
2014-Oct-19 02:33N 34°37' E 135°17'7 6.7
2014-Oct-19 01:29N 34°37' E 135°26'0 0.0
2014-Oct-19 00:29N 34°37' E 135°26'0 0.0
2014-Oct-18 23:34N 34°37' E 135°26'1110.7
2014-Oct-18 22:33N 34°35' E 135°13'1818.1
2014-Oct-18 21:33N 34°34' E 134°51'11017.7
2014-Oct-18 15:19N 33°59' E 132°44'2321.5
2014-Oct-18 14:16N 33°45' E 132°23'132 5.1
2014-Oct-17 12:30N 34°34' E 134°51'1919.7
2014-Oct-17 11:33N 34°36' E 135°13'1010.2
2014-Oct-17 10:32N 34°37' E 135°26'0 0.0
2014-Oct-17 09:32N 34°37' E 135°26'0 0.0
2014-Oct-17 08:26N 34°37' E 135°26'0 0.0
2014-Oct-17 07:32N 34°37' E 135°26'0 0.0
2014-Oct-17 06:32N 34°37' E 135°26'0 0.0
2014-Oct-17 05:26N 34°37' E 135°26'0 0.0
2014-Oct-17 04:26N 34°37' E 135°26'0 0.0
2014-Oct-17 03:32N 34°37' E 135°26'0 0.0
2014-Oct-17 02:32N 34°37' E 135°26'0 0.0
2014-Oct-17 01:32N 34°37' E 135°26'0 0.0
2014-Oct-17 00:26N 34°37' E 135°26'0 0.0
2014-Oct-16 23:33N 34°37' E 135°26'1010.3
2014-Oct-16 22:33N 34°35' E 135°14'1919.0
2014-Oct-16 21:33N 34°33' E 134°51'10818.0
2014-Oct-16 15:33N 34°01' E 132°46'2421.8
2014-Oct-16 14:28N 33°46' E 132°24'19 1.0
2014-Oct-15 18:32N 33°58' E 132°42'11418.9
2014-Oct-15 12:32N 34°35' E 134°52'2020.5
2014-Oct-15 11:33N 34°37' E 135°16'8 7.8
2014-Oct-15 10:33N 34°37' E 135°26'0 0.0
2014-Oct-15 09:33N 34°37' E 135°26'0 0.0
2014-Oct-15 08:33N 34°37' E 135°26'0 0.0
2014-Oct-15 07:33N 34°37' E 135°26'  

Dump ship's entire track history